Alta, Wyoming
Current Conditions -  °F | °C
As of 3:06 PM on Friday 24 Oct 2014 (Local Time) from KDIJ Reporting Station
Clear Clear  
Wind Chill: 66°   Ceiling: Unl
Heat Index: 66°   Visibility: 10mi
Dew Point: 25°   Wind: 20mph
Humidity: 21%   Direction: 240°WSW
Pressure: 30.19"   Gusts: NA
Location:  43.77°N, 110.98°W
Report Text: KDIJ 242106Z AUTO 24017KT 10SM CLR 19/M04 A3019 RMK AO2 WSHFT 2046
Loading
Personal Weather Stations






























Interactive Weather Map
Tropical Storm Tracking
New forecast layout! Learn more

10-Day Weather Forecast

Advertisements
Track Severe Weather on mobile